Time;durP1;ratioP1;P1;durP2;ratioP2;P2;SDS_P1;SDS_P2;PMS_P1;PMS_P2;Temp;Humidity;BMP_temperature;BMP_pressure;BME280_temperature;BME280_humidity;BME280_pressure;Samples;Min_cycle;Max_cycle;Signal;HPM_P1;HPM_P2
2022/06/20 00:00:42;;;;;;;8.90;4.72;;;;;;;;;;5054312;28;20044;-80
2022/06/20 00:03:16;;;;;;;6.70;4.90;;;;;;;;;;5064926;28;20438;-80
2022/06/20 00:05:42;;;;;;;6.43;4.22;;;;;;;;;;5065124;28;20025;-81
2022/06/20 00:08:10;;;;;;;6.13;4.55;;;;;;;;;;5063933;28;20029;-81
2022/06/20 00:10:36;;;;;;;7.45;4.68;;;;;;;;;;5064422;28;20036;-82
2022/06/20 00:13:02;;;;;;;6.70;4.57;;;;;;;;;;5056689;28;20024;-81
2022/06/20 00:15:31;;;;;;;7.20;5.00;;;;;;;;;;5043792;28;20080;-80
2022/06/20 00:17:57;;;;;;;7.22;5.00;;;;;;;;;;5048777;28;20025;-82
2022/06/20 00:20:24;;;;;;;6.63;4.75;;;;;;;;;;5064458;28;20021;-81
2022/06/20 00:22:50;;;;;;;7.88;4.70;;;;;;;;;;5060359;28;20025;-82
2022/06/20 00:25:16;;;;;;;9.45;5.03;;;;;;;;;;5046549;28;20442;-81
2022/06/20 00:27:43;;;;;;;6.80;4.85;;;;;;;;;;5061455;28;20051;-82
2022/06/20 00:30:10;;;;;;;7.88;5.18;;;;;;;;;;5048883;28;20025;-82
2022/06/20 00:32:36;;;;;;;6.25;4.65;;;;;;;;;;5044396;28;20025;-81
2022/06/20 00:35:03;;;;;;;7.43;5.10;;;;;;;;;;5026204;28;20040;-82
2022/06/20 00:37:29;;;;;;;7.35;5.03;;;;;;;;;;5027008;28;20026;-82
2022/06/20 00:39:55;;;;;;;9.60;4.97;;;;;;;;;;5039663;28;20025;-83
2022/06/20 00:42:21;;;;;;;7.13;5.25;;;;;;;;;;5042849;28;20116;-81
2022/06/20 00:44:54;;;;;;;6.63;4.80;;;;;;;;;;5048802;28;20025;-82
2022/06/20 00:47:19;;;;;;;;;;;;;;;;;;5024112;28;20123;-80
2022/06/20 00:50:05;;;;;;;7.07;4.63;;;;;;;;;;5056295;28;19909;-82
2022/06/20 00:52:40;;;;;;;7.60;4.60;;;;;;;;;;5037435;28;20059;-80
2022/06/20 00:55:21;;;;;;;6.72;4.90;;;;;;;;;;5051139;28;20021;-83
2022/06/20 00:57:56;;;;;;;7.95;4.82;;;;;;;;;;5064005;28;20116;-81
2022/06/20 01:00:25;;;;;;;6.68;5.47;;;;;;;;;;5064558;28;20025;-81
2022/06/20 01:02:52;;;;;;;8.18;5.00;;;;;;;;;;5058204;28;20026;-81
2022/06/20 01:05:25;;;;;;;6.75;5.05;;;;;;;;;;5041298;28;20025;-80
2022/06/20 01:07:55;;;;;;;6.95;4.82;;;;;;;;;;5072971;28;20120;-81
2022/06/20 01:10:22;;;;;;;6.95;4.47;;;;;;;;;;5042648;28;20037;-82
2022/06/20 01:13:01;;;;;;;8.48;5.28;;;;;;;;;;5045231;28;20026;-82
2022/06/20 01:15:32;;;;;;;6.22;4.97;;;;;;;;;;5041073;28;20085;-81
2022/06/20 01:17:58;;;;;;;6.75;5.25;;;;;;;;;;5039197;28;20507;-80
2022/06/20 01:20:27;;;;;;;6.65;5.03;;;;;;;;;;5024172;28;20026;-81
2022/06/20 01:23:12;;;;;;;6.88;5.30;;;;;;;;;;5074749;28;20025;-81
2022/06/20 01:25:41;;;;;;;6.97;5.28;;;;;;;;;;5044923;28;20109;-81
2022/06/20 01:28:10;;;;;;;6.90;5.32;;;;;;;;;;5023406;28;20057;-81
2022/06/20 01:30:38;;;;;;;7.78;5.10;;;;;;;;;;5028781;28;20028;-81
2022/06/20 01:33:04;;;;;;;7.15;4.97;;;;;;;;;;5038416;28;20079;-82
2022/06/20 01:38:16;;;;;;;6.88;5.22;;;;;;;;;;5041403;28;20454;-81
2022/06/20 01:42:18;;;;;;;6.95;5.10;;;;;;;;;;5043378;28;20041;-81
2022/06/20 01:43:31;;;;;;;8.60;5.80;;;;;;;;;;5042138;28;20034;-82
2022/06/20 01:45:58;;;;;;;7.45;5.45;;;;;;;;;;5044299;28;20017;-83
2022/06/20 01:48:24;;;;;;;6.47;5.00;;;;;;;;;;5043011;28;20032;-83
2022/06/20 01:50:51;;;;;;;6.53;5.10;;;;;;;;;;5051223;28;20052;-81
2022/06/20 01:53:20;;;;;;;7.20;5.32;;;;;;;;;;5042562;28;20022;-82
2022/06/20 01:55:47;;;;;;;7.13;5.53;;;;;;;;;;5041081;28;20045;-81
2022/06/20 01:58:19;;;;;;;6.57;5.00;;;;;;;;;;5043486;28;20360;-81
2022/06/20 02:00:45;;;;;;;7.43;5.18;;;;;;;;;;5023332;28;20026;-82
2022/06/20 02:03:13;;;;;;;7.25;5.65;;;;;;;;;;5037861;28;20041;-83
2022/06/20 02:05:40;;;;;;;7.45;5.57;;;;;;;;;;5040944;28;20027;-82
2022/06/20 02:08:07;;;;;;;7.82;5.45;;;;;;;;;;5041277;28;20022;-81
2022/06/20 02:10:40;;;;;;;7.85;5.50;;;;;;;;;;5042756;28;20042;-82
2022/06/20 02:13:06;;;;;;;8.82;5.40;;;;;;;;;;5042577;28;20076;-81
2022/06/20 02:15:34;;;;;;;8.48;5.85;;;;;;;;;;5046588;28;20047;-83
2022/06/20 02:18:01;;;;;;;8.27;5.93;;;;;;;;;;5060505;28;20105;-82
2022/06/20 02:20:29;;;;;;;7.95;5.38;;;;;;;;;;5060254;28;20022;-82
2022/06/20 02:22:57;;;;;;;7.57;5.70;;;;;;;;;;5025835;28;20030;-83
2022/06/20 02:25:25;;;;;;;7.05;6.22;;;;;;;;;;5044201;28;20013;-83
2022/06/20 02:27:53;;;;;;;6.88;5.28;;;;;;;;;;5060376;28;20052;-81
2022/06/20 02:30:20;;;;;;;7.15;5.90;;;;;;;;;;5061506;28;20025;-82
2022/06/20 02:32:59;;;;;;;8.52;6.32;;;;;;;;;;5049192;28;20022;-81
2022/06/20 02:35:25;;;;;;;7.05;5.90;;;;;;;;;;5042396;28;20055;-83
2022/06/20 02:37:51;;;;;;;7.88;5.72;;;;;;;;;;5060095;28;20029;-82
2022/06/20 02:40:19;;;;;;;8.25;5.75;;;;;;;;;;5061775;28;20112;-80
2022/06/20 02:43:05;;;;;;;8.45;6.13;;;;;;;;;;5053179;28;20022;-81
2022/06/20 02:45:33;;;;;;;8.35;5.82;;;;;;;;;;5039717;28;20025;-82
2022/06/20 02:48:02;;;;;;;6.53;5.32;;;;;;;;;;5021498;28;20498;-82
2022/06/20 02:50:31;;;;;;;8.50;5.70;;;;;;;;;;5024788;28;20044;-81
2022/06/20 02:53:03;;;;;;;12.45;6.78;;;;;;;;;;5024793;28;20022;-82
2022/06/20 02:55:30;;;;;;;7.18;5.30;;;;;;;;;;5032426;28;20048;-81
2022/06/20 02:57:58;;;;;;;7.25;6.00;;;;;;;;;;5059266;28;20109;-81
2022/06/20 03:00:38;;;;;;;7.07;5.38;;;;;;;;;;5037269;28;20026;-82
2022/06/20 03:03:10;;;;;;;14.57;6.80;;;;;;;;;;5029003;28;20053;-81
2022/06/20 03:05:38;;;;;;;7.57;5.50;;;;;;;;;;5047073;28;20061;-81
2022/06/20 03:08:04;;;;;;;9.18;5.60;;;;;;;;;;5054165;28;20027;-81
2022/06/20 03:10:40;;;;;;;8.85;7.05;;;;;;;;;;5039099;28;20037;-82
2022/06/20 03:13:06;;;;;;;7.88;6.25;;;;;;;;;;5040370;28;20075;-82
2022/06/20 03:15:33;;;;;;;7.65;5.80;;;;;;;;;;5048971;28;20120;-83
2022/06/20 03:17:59;;;;;;;7.93;5.85;;;;;;;;;;5061217;28;20450;-83
2022/06/20 03:20:26;;;;;;;7.90;6.22;;;;;;;;;;5063147;28;20025;-82
2022/06/20 03:23:04;;;;;;;13.48;7.68;;;;;;;;;;5045496;28;20527;-81
2022/06/20 03:25:31;;;;;;;7.93;6.10;;;;;;;;;;5043369;28;20033;-81
2022/06/20 03:27:57;;;;;;;8.73;6.68;;;;;;;;;;5044298;28;20025;-81
2022/06/20 03:30:26;;;;;;;7.63;5.95;;;;;;;;;;5046254;28;20448;-82
2022/06/20 03:32:52;;;;;;;7.53;5.88;;;;;;;;;;5034845;28;20080;-82
2022/06/20 03:35:19;;;;;;;8.85;5.95;;;;;;;;;;5054709;28;20093;-81
2022/06/20 03:37:46;;;;;;;7.75;6.00;;;;;;;;;;5069438;28;20028;-81
2022/06/20 03:40:12;;;;;;;8.35;6.05;;;;;;;;;;5042409;28;20097;-81
2022/06/20 03:43:05;;;;;;;9.23;6.78;;;;;;;;;;5056328;28;20629;-81
2022/06/20 03:45:33;;;;;;;7.85;5.90;;;;;;;;;;5058740;28;20048;-81
2022/06/20 03:48:05;;;;;;;9.25;6.05;;;;;;;;;;5062812;28;20025;-81
2022/06/20 03:50:36;;;;;;;8.88;6.70;;;;;;;;;;5060800;28;20021;-80
2022/06/20 03:53:06;;;;;;;8.15;5.97;;;;;;;;;;5037220;28;20028;-81
2022/06/20 03:55:35;;;;;;;13.32;7.35;;;;;;;;;;5039689;28;20026;-83
2022/06/20 03:58:01;;;;;;;8.45;6.80;;;;;;;;;;5039859;28;20028;-81
2022/06/20 04:00:35;;;;;;;7.53;6.53;;;;;;;;;;5042926;28;20026;-81
2022/06/20 04:03:12;;;;;;;8.02;6.32;;;;;;;;;;5042522;28;20480;-80
2022/06/20 04:06:00;;;;;;;12.40;6.82;;;;;;;;;;5046383;28;20085;-81
2022/06/20 04:11:25;;;;;;;7.68;6.35;;;;;;;;;;5040140;28;20121;-81
2022/06/20 04:14:11;;;;;;;8.95;6.22;;;;;;;;;;5044715;28;20028;-80
2022/06/20 04:16:40;;;;;;;7.95;6.47;;;;;;;;;;5042489;28;20125;-81
2022/06/20 04:19:22;;;;;;;7.95;6.63;;;;;;;;;;5032315;28;20062;-81
2022/06/20 04:21:49;;;;;;;9.45;7.00;;;;;;;;;;5044239;28;20030;-83
2022/06/20 04:24:28;;;;;;;8.52;6.50;;;;;;;;;;5054876;28;20029;-81
2022/06/20 04:26:57;;;;;;;10.10;6.57;;;;;;;;;;5050649;28;20027;-82
2022/06/20 04:29:27;;;;;;;7.35;6.30;;;;;;;;;;5042970;28;20033;-82
2022/06/20 04:31:59;;;;;;;9.32;6.45;;;;;;;;;;5038109;28;20029;-81
2022/06/20 04:34:35;;;;;;;7.22;5.82;;;;;;;;;;5039225;28;20057;-83
2022/06/20 04:37:01;;;;;;;11.55;7.55;;;;;;;;;;5053163;28;20021;-82
2022/06/20 04:39:43;;;;;;;13.73;8.02;;;;;;;;;;5049334;28;20093;-82
2022/06/20 04:42:12;;;;;;;7.95;6.30;;;;;;;;;;5042118;28;20059;-82
2022/06/20 04:44:46;;;;;;;8.00;7.00;;;;;;;;;;5040272;28;20030;-82
2022/06/20 04:47:22;;;;;;;10.30;6.88;;;;;;;;;;5037510;28;20030;-81
2022/06/20 04:49:48;;;;;;;11.02;7.70;;;;;;;;;;5037421;28;20026;-82
2022/06/20 04:52:25;;;;;;;8.90;6.75;;;;;;;;;;5037690;28;20403;-81
2022/06/20 04:54:51;;;;;;;8.77;6.38;;;;;;;;;;5049221;28;20032;-81
2022/06/20 04:57:17;;;;;;;9.52;7.07;;;;;;;;;;5048051;28;20045;-81
2022/06/20 04:59:44;;;;;;;8.20;6.63;;;;;;;;;;5036684;28;20034;-80
2022/06/20 05:02:20;;;;;;;11.23;7.30;;;;;;;;;;5036031;28;20104;-81
2022/06/20 05:04:50;;;;;;;8.48;6.78;;;;;;;;;;5036389;28;20014;-81
2022/06/20 05:07:30;;;;;;;9.32;7.30;;;;;;;;;;5042655;28;20146;-82
2022/06/20 05:09:59;;;;;;;9.48;7.40;;;;;;;;;;5042845;28;20113;-82
2022/06/20 05:12:30;;;;;;;10.57;7.32;;;;;;;;;;5042732;28;20049;-82
2022/06/20 05:14:56;;;;;;;9.50;6.68;;;;;;;;;;5040090;28;20030;-82
2022/06/20 05:17:24;;;;;;;9.73;7.25;;;;;;;;;;5042355;28;20029;-80
2022/06/20 05:19:53;;;;;;;8.93;6.88;;;;;;;;;;5036619;28;20022;-77
2022/06/20 05:22:21;;;;;;;9.50;7.00;;;;;;;;;;5031695;28;20037;-76
2022/06/20 05:24:49;;;;;;;11.15;7.78;;;;;;;;;;5035660;28;20526;-78
2022/06/20 05:27:35;;;;;;;10.45;8.10;;;;;;;;;;5033633;28;20364;-79
2022/06/20 05:30:03;;;;;;;8.00;6.90;;;;;;;;;;5049744;28;20347;-77
2022/06/20 05:32:37;;;;;;;11.52;8.25;;;;;;;;;;5035516;28;20017;-79
2022/06/20 05:35:09;;;;;;;10.98;7.70;;;;;;;;;;5036242;28;20057;-79
2022/06/20 05:37:44;;;;;;;10.48;7.78;;;;;;;;;;5037713;28;20144;-79
2022/06/20 05:40:23;;;;;;;10.23;7.40;;;;;;;;;;5035855;28;20072;-79
2022/06/20 05:42:49;;;;;;;10.88;7.68;;;;;;;;;;5035115;28;20036;-79
2022/06/20 05:45:17;;;;;;;8.43;7.25;;;;;;;;;;5036227;28;20025;-78
2022/06/20 05:47:49;;;;;;;10.90;8.23;;;;;;;;;;5044992;28;20047;-78
2022/06/20 05:50:15;;;;;;;9.00;7.50;;;;;;;;;;5034335;28;20049;-78
2022/06/20 05:52:44;;;;;;;8.65;7.35;;;;;;;;;;5033929;28;20029;-78
2022/06/20 05:55:27;;;;;;;8.23;7.38;;;;;;;;;;5030856;28;20065;-78
2022/06/20 05:57:54;;;;;;;11.00;7.40;;;;;;;;;;5050584;28;20037;-78
2022/06/20 06:00:32;;;;;;;9.20;7.60;;;;;;;;;;5037870;28;20040;-78
2022/06/20 06:03:07;;;;;;;8.88;7.72;;;;;;;;;;5034668;28;20108;-78
2022/06/20 06:05:37;;;;;;;9.75;7.65;;;;;;;;;;5058268;28;20526;-78
2022/06/20 06:08:13;;;;;;;9.18;7.85;;;;;;;;;;5035706;28;20021;-77
2022/06/20 06:10:43;;;;;;;11.35;7.85;;;;;;;;;;5044366;28;20021;-77
2022/06/20 06:13:24;;;;;;;9.38;7.25;;;;;;;;;;5036212;28;20136;-77
2022/06/20 06:18:54;;;;;;;8.43;7.63;;;;;;;;;;5023408;28;20605;-78
2022/06/20 06:21:33;;;;;;;10.30;7.50;;;;;;;;;;5040949;28;20026;-78
2022/06/20 06:24:00;;;;;;;10.05;7.50;;;;;;;;;;5025493;28;20053;-78
2022/06/20 06:26:26;;;;;;;8.75;7.50;;;;;;;;;;5033202;28;20025;-77
2022/06/20 06:28:53;;;;;;;9.27;7.65;;;;;;;;;;5036283;28;20026;-77
2022/06/20 06:31:22;;;;;;;8.73;7.50;;;;;;;;;;5035729;28;20033;-79
2022/06/20 06:34:00;;;;;;;9.50;7.43;;;;;;;;;;5023854;28;20029;-78
2022/06/20 06:36:32;;;;;;;9.75;8.18;;;;;;;;;;5021050;28;20045;-78
2022/06/20 06:39:17;;;;;;;10.68;8.00;;;;;;;;;;5027056;28;20360;-78
2022/06/20 06:41:47;;;;;;;9.15;7.90;;;;;;;;;;5027503;28;20025;-79
2022/06/20 06:44:25;;;;;;;9.35;8.23;;;;;;;;;;5033412;28;20849;-77
2022/06/20 06:46:53;;;;;;;10.20;7.60;;;;;;;;;;5037343;28;20025;-78
2022/06/20 06:49:39;;;;;;;13.55;8.95;;;;;;;;;;5038361;28;20105;-78
2022/06/20 06:52:07;;;;;;;13.88;8.38;;;;;;;;;;5037772;28;20395;-78
2022/06/20 06:54:42;;;;;;;11.35;8.20;;;;;;;;;;5037150;28;20112;-78
2022/06/20 06:57:12;;;;;;;9.80;8.18;;;;;;;;;;5043958;28;20518;-77
2022/06/20 06:59:45;;;;;;;11.63;8.23;;;;;;;;;;5055961;28;20052;-77
2022/06/20 07:02:21;;;;;;;12.20;9.00;;;;;;;;;;5058390;28;20067;-78
2022/06/20 07:05:03;;;;;;;9.38;7.78;;;;;;;;;;5057285;28;20104;-77
2022/06/20 07:07:33;;;;;;;12.10;9.43;;;;;;;;;;5044552;28;20045;-77
2022/06/20 07:09:59;;;;;;;10.40;8.63;;;;;;;;;;5035459;28;20380;-77
2022/06/20 07:12:28;;;;;;;10.85;8.00;;;;;;;;;;5038077;28;20075;-78
2022/06/20 07:15:13;;;;;;;9.45;8.45;;;;;;;;;;5037217;28;20037;-77
2022/06/20 07:17:56;;;;;;;10.45;8.45;;;;;;;;;;5037427;28;20368;-77
2022/06/20 07:20:24;;;;;;;9.70;8.00;;;;;;;;;;5037776;28;20057;-78
2022/06/20 07:22:51;;;;;;;11.35;8.98;;;;;;;;;;5036043;28;20063;-78
2022/06/20 07:25:30;;;;;;;8.77;7.85;;;;;;;;;;5036920;28;20031;-78
2022/06/20 07:27:59;;;;;;;9.25;7.57;;;;;;;;;;5037432;28;20018;-78
2022/06/20 07:30:30;;;;;;;10.82;8.48;;;;;;;;;;5037327;28;20068;-77
2022/06/20 07:33:00;;;;;;;9.88;8.73;;;;;;;;;;5036810;28;20025;-78
2022/06/20 07:35:33;;;;;;;10.27;8.65;;;;;;;;;;5037596;28;20037;-77
2022/06/20 07:38:07;;;;;;;9.80;8.00;;;;;;;;;;5037544;28;20061;-78
2022/06/20 07:40:53;;;;;;;9.43;7.88;;;;;;;;;;5038202;28;20029;-78
2022/06/20 07:43:29;;;;;;;10.18;8.10;;;;;;;;;;5037594;28;20029;-78
2022/06/20 07:45:56;;;;;;;10.23;8.20;;;;;;;;;;5040809;28;20018;-78
2022/06/20 07:48:25;;;;;;;9.65;8.65;;;;;;;;;;5040516;28;20039;-77
2022/06/20 07:51:16;;;;;;;10.32;7.97;;;;;;;;;;5040654;28;20025;-79
2022/06/20 07:53:45;;;;;;;9.32;8.27;;;;;;;;;;5040253;28;20109;-77
2022/06/20 07:56:13;;;;;;;9.68;8.50;;;;;;;;;;5046423;28;20470;-77
2022/06/20 07:58:48;;;;;;;10.27;8.65;;;;;;;;;;5056637;28;20027;-79
2022/06/20 08:01:24;;;;;;;10.02;7.50;;;;;;;;;;5058181;28;20391;-77
2022/06/20 08:03:54;;;;;;;8.20;7.28;;;;;;;;;;5047066;28;20609;-78
2022/06/20 08:06:23;;;;;;;9.52;8.43;;;;;;;;;;5038064;28;20025;-78
2022/06/20 08:08:53;;;;;;;9.18;7.53;;;;;;;;;;5038550;28;20109;-77
2022/06/20 08:11:40;;;;;;;9.60;8.52;;;;;;;;;;5035859;28;20040;-77
2022/06/20 08:14:09;;;;;;;8.95;8.02;;;;;;;;;;5035272;28;20029;-77
2022/06/20 08:16:35;;;;;;;10.25;7.88;;;;;;;;;;5034993;28;20501;-77
2022/06/20 08:19:02;;;;;;;9.95;8.02;;;;;;;;;;5044137;28;20033;-78
2022/06/20 08:21:34;;;;;;;8.23;7.43;;;;;;;;;;5023914;28;20614;-77
2022/06/20 08:24:02;;;;;;;9.75;7.60;;;;;;;;;;5023949;28;20021;-77
2022/06/20 08:26:50;;;;;;;10.77;7.85;;;;;;;;;;5036083;28;20022;-78
2022/06/20 08:29:30;;;;;;;9.75;7.95;;;;;;;;;;5035279;28;20021;-77
2022/06/20 08:32:03;;;;;;;9.98;8.07;;;;;;;;;;5038816;28;20021;-77
2022/06/20 08:34:33;;;;;;;10.65;8.23;;;;;;;;;;5034824;28;20522;-78
2022/06/20 08:36:59;;;;;;;8.98;8.07;;;;;;;;;;5035455;28;20033;-78
2022/06/20 08:39:25;;;;;;;10.13;7.75;;;;;;;;;;5033690;28;20096;-78
2022/06/20 08:42:03;;;;;;;11.05;8.13;;;;;;;;;;5034803;28;20065;-77
2022/06/20 08:44:45;;;;;;;8.77;7.70;;;;;;;;;;5039786;28;20022;-77
2022/06/20 08:47:11;;;;;;;;;;;;;;;;;;5038240;28;20026;-78
2022/06/20 08:49:40;;;;;;;8.63;7.47;;;;;;;;;;5027921;28;20398;-77
2022/06/20 08:52:32;;;;;;;12.25;8.35;;;;;;;;;;5055455;28;20029;-77
2022/06/20 08:54:59;;;;;;;9.88;7.70;;;;;;;;;;5056587;28;20037;-77
2022/06/20 08:57:37;;;;;;;10.30;7.60;;;;;;;;;;5042403;28;20048;-78
2022/06/20 09:00:23;;;;;;;11.20;7.95;;;;;;;;;;5035989;28;20022;-77
2022/06/20 09:02:49;;;;;;;10.48;7.70;;;;;;;;;;5037191;28;20068;-78
2022/06/20 09:05:24;;;;;;;10.45;8.35;;;;;;;;;;5033059;28;20179;-77
2022/06/20 09:08:06;;;;;;;10.00;7.43;;;;;;;;;;5034979;28;20108;-81
2022/06/20 09:10:47;;;;;;;10.80;7.75;;;;;;;;;;5031352;28;20128;-78
2022/06/20 09:13:22;;;;;;;8.70;7.72;;;;;;;;;;5043134;28;20086;-77
2022/06/20 09:16:03;;;;;;;8.18;7.38;;;;;;;;;;5037537;28;20037;-78
2022/06/20 09:18:48;;;;;;;9.48;8.57;;;;;;;;;;5043658;28;20053;-77
2022/06/20 09:21:47;;;;;;;11.93;9.30;;;;;;;;;;5032092;28;20083;-78
2022/06/20 09:24:21;;;;;;;10.82;7.97;;;;;;;;;;5036988;28;20032;-77
2022/06/20 09:26:58;;;;;;;11.73;7.85;;;;;;;;;;5035670;28;20388;-77
2022/06/20 09:29:36;;;;;;;9.02;7.47;;;;;;;;;;5047484;28;20108;-77
2022/06/20 09:32:07;;;;;;;9.07;7.80;;;;;;;;;;5032851;28;20026;-77
2022/06/20 09:34:37;;;;;;;11.57;7.80;;;;;;;;;;5035708;28;20036;-77
2022/06/20 09:37:03;;;;;;;9.13;8.00;;;;;;;;;;5046406;28;20059;-77
2022/06/20 09:39:29;;;;;;;8.90;7.75;;;;;;;;;;5053726;28;20554;-77
2022/06/20 09:42:05;;;;;;;11.30;7.82;;;;;;;;;;5044659;28;20087;-77
2022/06/20 09:44:35;;;;;;;9.10;7.95;;;;;;;;;;5039870;28;20446;-77
2022/06/20 09:47:11;;;;;;;9.02;8.13;;;;;;;;;;5032863;28;20479;-78
2022/06/20 09:49:52;;;;;;;11.18;7.63;;;;;;;;;;5035453;28;20033;-77
2022/06/20 09:52:28;;;;;;;11.13;7.95;;;;;;;;;;5051521;28;20033;-78
2022/06/20 09:54:54;;;;;;;8.57;7.65;;;;;;;;;;5053799;28;20017;-78
2022/06/20 09:57:39;;;;;;;9.93;8.07;;;;;;;;;;5052756;28;20483;-77
2022/06/20 10:00:15;;;;;;;9.63;7.50;;;;;;;;;;5054811;28;20394;-77
2022/06/20 10:03:20;;;;;;;9.02;7.68;;;;;;;;;;5016164;28;20046;-76
2022/06/20 10:05:55;;;;;;;10.32;8.13;;;;;;;;;;5052360;28;20032;-77
2022/06/20 10:08:28;;;;;;;8.73;7.82;;;;;;;;;;5019860;28;20034;-77
2022/06/20 10:10:56;;;;;;;13.63;8.85;;;;;;;;;;5044008;28;20025;-78
2022/06/20 10:13:41;;;;;;;12.20;9.18;;;;;;;;;;5021834;28;20026;-77
2022/06/20 10:16:12;;;;;;;14.82;10.40;;;;;;;;;;5035105;28;20020;-77
2022/06/20 10:18:38;;;;;;;13.32;9.32;;;;;;;;;;5034604;28;20025;-76
2022/06/20 10:21:08;;;;;;;11.20;10.00;;;;;;;;;;5044037;28;20060;-76
2022/06/20 10:23:54;;;;;;;10.40;9.18;;;;;;;;;;5052611;28;20082;-76
2022/06/20 10:26:39;;;;;;;11.60;9.82;;;;;;;;;;5024264;28;20029;-77
2022/06/20 10:29:23;;;;;;;11.68;9.55;;;;;;;;;;5034146;28;20034;-76
2022/06/20 10:31:52;;;;;;;11.18;10.07;;;;;;;;;;5028186;28;20036;-77
2022/06/20 10:34:18;;;;;;;11.35;10.07;;;;;;;;;;5042707;22;20058;-81
2022/06/20 10:36:44;;;;;;;11.95;9.98;;;;;;;;;;5014574;28;20034;-81
2022/06/20 10:39:12;;;;;;;11.63;9.90;;;;;;;;;;5016675;28;20037;-81
2022/06/20 10:41:41;;;;;;;12.38;10.05;;;;;;;;;;5002326;28;20061;-83
2022/06/20 10:44:13;;;;;;;11.80;10.35;;;;;;;;;;4992482;28;20026;-83
2022/06/20 10:46:41;;;;;;;13.23;11.23;;;;;;;;;;4980109;28;20131;-83
2022/06/20 10:49:19;;;;;;;14.77;11.25;;;;;;;;;;4997010;28;20384;-82
2022/06/20 10:52:04;;;;;;;11.80;10.70;;;;;;;;;;5009373;28;20042;-84
2022/06/20 10:54:48;;;;;;;11.80;10.52;;;;;;;;;;4986727;28;20113;-83
2022/06/20 10:57:29;;;;;;;12.30;11.00;;;;;;;;;;4995476;28;20053;-82
2022/06/20 11:00:01;;;;;;;11.98;10.82;;;;;;;;;;4997136;28;20429;-83
2022/06/20 11:02:30;;;;;;;12.35;11.05;;;;;;;;;;4996423;28;20503;-83
2022/06/20 11:04:56;;;;;;;11.55;10.35;;;;;;;;;;4996244;28;20018;-82
2022/06/20 11:07:22;;;;;;;12.88;10.52;;;;;;;;;;5005542;28;20030;-86
2022/06/20 11:09:56;;;;;;;12.18;10.90;;;;;;;;;;5009680;28;20026;-83
2022/06/20 11:12:22;;;;;;;13.77;11.20;;;;;;;;;;5016187;28;20022;-80
2022/06/20 11:14:51;;;;;;;13.02;10.93;;;;;;;;;;4996163;28;20389;-82
2022/06/20 11:17:24;;;;;;;14.32;11.27;;;;;;;;;;4996706;28;20030;-84
2022/06/20 11:19:50;;;;;;;16.25;11.65;;;;;;;;;;5005778;28;20022;-83
2022/06/20 11:22:37;;;;;;;13.18;11.73;;;;;;;;;;5013330;28;20022;-83
2022/06/20 11:25:06;;;;;;;12.50;11.20;;;;;;;;;;5008334;28;20105;-82
2022/06/20 11:27:44;;;;;;;12.90;11.55;;;;;;;;;;4996404;28;20086;-83
2022/06/20 11:30:18;;;;;;;12.60;10.65;;;;;;;;;;4995291;28;20499;-83
2022/06/20 11:33:20;;;;;;;16.95;10.73;;;;;;;;;;4994749;28;20069;-83
2022/06/20 11:35:53;;;;;;;12.23;9.90;;;;;;;;;;4972973;28;20034;-82
2022/06/20 11:38:25;;;;;;;12.35;10.13;;;;;;;;;;4973728;28;20038;-82
2022/06/20 11:40:51;;;;;;;13.38;9.45;;;;;;;;;;4979015;28;20050;-83
2022/06/20 11:43:23;;;;;;;14.20;8.98;;;;;;;;;;4963261;28;20041;-82
2022/06/20 11:46:04;;;;;;;13.98;8.70;;;;;;;;;;4963879;28;20074;-82
2022/06/20 11:49:02;;;;;;;12.25;8.43;;;;;;;;;;4978292;28;20086;-82
2022/06/20 11:51:34;;;;;;;12.27;6.75;;;;;;;;;;4920958;29;20430;-80
2022/06/20 11:54:08;;;;;;;12.77;6.82;;;;;;;;;;4924738;29;20123;-84
2022/06/20 11:56:46;;;;;;;18.92;7.18;;;;;;;;;;4919535;29;20040;-81
2022/06/20 11:59:30;;;;;;;12.88;7.25;;;;;;;;;;4918043;29;20032;-83
2022/06/20 12:02:10;;;;;;;10.65;6.47;;;;;;;;;;4923026;29;20039;-82
2022/06/20 12:04:49;;;;;;;12.75;6.40;;;;;;;;;;4921338;29;20067;-82
2022/06/20 12:07:26;;;;;;;12.10;6.63;;;;;;;;;;4907018;29;20060;-82
2022/06/20 12:10:05;;;;;;;8.77;6.10;;;;;;;;;;4931173;29;20048;-82
2022/06/20 12:12:48;;;;;;;12.35;6.25;;;;;;;;;;4942045;29;20035;-83
2022/06/20 12:15:43;;;;;;;12.40;6.93;;;;;;;;;;4937514;29;20035;-83
2022/06/20 12:18:25;;;;;;;9.60;6.78;;;;;;;;;;4941367;29;20040;-81
2022/06/20 12:23:48;;;;;;;10.70;6.50;;;;;;;;;;4941823;29;20283;-81
2022/06/20 12:26:14;;;;;;;12.65;7.07;;;;;;;;;;4952398;28;20034;-82
2022/06/20 12:28:43;;;;;;;10.05;6.65;;;;;;;;;;5006276;28;20037;-81
2022/06/20 12:31:09;;;;;;;10.25;7.20;;;;;;;;;;4998898;28;20030;-81
2022/06/20 12:33:36;;;;;;;12.32;6.90;;;;;;;;;;4998801;28;20142;-82
2022/06/20 12:36:05;;;;;;;11.43;7.75;;;;;;;;;;4998569;28;20027;-82
2022/06/20 12:38:36;;;;;;;10.85;6.88;;;;;;;;;;5033540;28;20100;-81
2022/06/20 12:41:05;;;;;;;11.68;6.88;;;;;;;;;;5000402;28;20081;-81
2022/06/20 12:43:49;;;;;;;10.55;7.40;;;;;;;;;;5012679;28;20032;-80
2022/06/20 12:46:42;;;;;;;11.55;7.15;;;;;;;;;;5000642;28;20019;-82
2022/06/20 12:49:14;;;;;;;12.07;6.78;;;;;;;;;;4989750;28;20475;-82
2022/06/20 12:51:40;;;;;;;;;;;;;;;;;;4998901;28;20400;-80
2022/06/20 12:54:18;;;;;;;10.77;6.35;;;;;;;;;;4998649;28;19939;-82
2022/06/20 12:56:50;;;;;;;9.90;6.45;;;;;;;;;;5000379;28;20033;-82
2022/06/20 12:59:16;;;;;;;10.23;6.63;;;;;;;;;;5000177;28;20034;-83
2022/06/20 13:02:04;;;;;;;12.02;7.07;;;;;;;;;;5016101;28;20085;-83
2022/06/20 13:04:41;;;;;;;8.70;6.25;;;;;;;;;;5021548;28;20097;-84
2022/06/20 13:07:07;;;;;;;12.57;7.35;;;;;;;;;;5017547;28;20029;-82
2022/06/20 13:09:33;;;;;;;8.93;6.10;;;;;;;;;;5020225;28;20034;-82
2022/06/20 13:12:17;;;;;;;10.80;6.80;;;;;;;;;;5016368;28;20080;-83
2022/06/20 13:15:08;;;;;;;8.85;6.45;;;;;;;;;;5012622;28;20037;-83
2022/06/20 13:17:46;;;;;;;12.55;6.85;;;;;;;;;;5000595;28;20030;-82
2022/06/20 13:20:24;;;;;;;10.95;6.28;;;;;;;;;;5001715;28;20480;-82
2022/06/20 13:23:13;;;;;;;10.52;6.82;;;;;;;;;;5018457;28;20030;-83
2022/06/20 13:25:48;;;;;;;7.82;6.25;;;;;;;;;;5000364;28;20041;-82
2022/06/20 13:28:20;;;;;;;9.88;7.00;;;;;;;;;;5001010;28;20027;-82
2022/06/20 13:31:04;;;;;;;9.57;7.10;;;;;;;;;;5000438;28;20034;-82
2022/06/20 13:34:00;;;;;;;10.80;7.85;;;;;;;;;;5015000;28;20042;-82
2022/06/20 13:36:29;;;;;;;11.48;7.40;;;;;;;;;;5005127;28;20074;-82
2022/06/20 13:39:27;;;;;;;13.32;7.93;;;;;;;;;;5022222;28;20431;-80
2022/06/20 13:42:01;;;;;;;12.80;7.80;;;;;;;;;;4970030;28;20547;-82
2022/06/20 13:44:32;;;;;;;10.85;8.07;;;;;;;;;;5006761;28;20100;-82
2022/06/20 13:47:04;;;;;;;11.05;8.45;;;;;;;;;;4999563;28;20038;-82
2022/06/20 13:49:29;;;;;;;12.55;8.23;;;;;;;;;;5001698;28;20032;-82
2022/06/20 13:52:00;;;;;;;11.05;8.00;;;;;;;;;;4993730;28;20054;-81
2022/06/20 13:54:34;;;;;;;10.77;8.73;;;;;;;;;;4999743;28;20040;-80
2022/06/20 13:57:03;;;;;;;13.13;9.23;;;;;;;;;;5007579;28;20083;-81
2022/06/20 13:59:38;;;;;;;12.90;9.27;;;;;;;;;;5004788;28;20038;-84
2022/06/20 14:02:24;;;;;;;15.32;9.43;;;;;;;;;;4987152;28;20014;-84
2022/06/20 14:04:51;;;;;;;12.48;9.32;;;;;;;;;;4992206;28;20022;-82
2022/06/20 14:07:24;;;;;;;10.82;8.85;;;;;;;;;;5000288;28;20028;-83
2022/06/20 14:09:53;;;;;;;11.68;8.75;;;;;;;;;;5000932;28;20045;-82
2022/06/20 14:12:25;;;;;;;13.50;8.25;;;;;;;;;;5002069;28;20030;-82
2022/06/20 14:14:55;;;;;;;11.60;8.98;;;;;;;;;;5013525;28;20620;-83
2022/06/20 14:17:27;;;;;;;10.35;8.90;;;;;;;;;;4984829;28;20110;-83
2022/06/20 14:20:02;;;;;;;14.95;8.88;;;;;;;;;;5000525;28;20030;-82
2022/06/20 14:22:33;;;;;;;13.85;9.90;;;;;;;;;;4998243;28;20110;-82
2022/06/20 14:25:01;;;;;;;11.77;9.07;;;;;;;;;;5002618;28;20022;-82
2022/06/20 14:27:29;;;;;;;12.20;9.30;;;;;;;;;;4988170;28;20037;-82
2022/06/20 14:30:01;;;;;;;12.80;10.15;;;;;;;;;;5002501;28;20521;-82
2022/06/20 14:32:31;;;;;;;11.45;8.82;;;;;;;;;;5019555;28;20092;-82
2022/06/20 14:35:21;;;;;;;13.63;9.73;;;;;;;;;;5007281;28;20109;-82
2022/06/20 14:38:07;;;;;;;17.23;9.77;;;;;;;;;;4985400;28;20057;-82
2022/06/20 14:40:33;;;;;;;11.98;9.40;;;;;;;;;;5023389;28;20384;-82
2022/06/20 14:42:59;;;;;;;13.15;9.35;;;;;;;;;;5012323;28;20034;-84
2022/06/20 14:45:28;;;;;;;12.77;8.98;;;;;;;;;;5000654;28;20057;-84
2022/06/20 14:48:06;;;;;;;12.60;9.70;;;;;;;;;;4997659;28;20104;-84
2022/06/20 14:50:51;;;;;;;13.80;9.15;;;;;;;;;;4996467;28;20033;-84
2022/06/20 14:53:17;;;;;;;16.05;9.77;;;;;;;;;;5020606;28;20032;-84
2022/06/20 14:55:51;;;;;;;12.13;9.30;;;;;;;;;;5006012;28;20023;-84
2022/06/20 14:58:20;;;;;;;14.10;9.10;;;;;;;;;;5007927;28;20033;-84
2022/06/20 15:00:58;;;;;;;11.43;8.88;;;;;;;;;;5019669;28;20262;-85
2022/06/20 15:03:32;;;;;;;10.80;7.88;;;;;;;;;;5006163;28;20019;-84
2022/06/20 15:06:12;;;;;;;10.13;7.68;;;;;;;;;;4997871;28;20567;-84
2022/06/20 15:08:50;;;;;;;15.77;8.48;;;;;;;;;;4999786;28;20026;-85
2022/06/20 15:11:22;;;;;;;12.68;9.15;;;;;;;;;;5001739;28;20032;-84
2022/06/20 15:14:00;;;;;;;11.57;7.82;;;;;;;;;;5014105;28;20095;-84
2022/06/20 15:16:43;;;;;;;9.82;6.75;;;;;;;;;;5013348;28;20065;-84
2022/06/20 15:19:19;;;;;;;14.85;7.18;;;;;;;;;;5019409;28;20038;-83
2022/06/20 15:21:51;;;;;;;11.10;7.32;;;;;;;;;;5003310;28;20030;-84